createdAt,value
2023-02-08T00:01:10.830Z,101897.41
2023-02-08T00:03:40.187Z,101899.78
2023-02-08T00:06:11.360Z,101895.91
2023-02-08T00:08:39.836Z,101898.66
2023-02-08T00:11:07.581Z,101897.41
2023-02-08T00:13:35.068Z,101898.34
2023-02-08T00:16:02.047Z,101897.19
2023-02-08T00:18:29.249Z,101892.84
2023-02-08T00:20:57.462Z,101892.38
2023-02-08T00:23:25.530Z,101900.22
2023-02-08T00:25:52.260Z,101903.22
2023-02-08T00:28:20.176Z,101902.78
2023-02-08T00:30:49.952Z,101904.72
2023-02-08T00:33:16.889Z,101904.28
2023-02-08T00:38:10.590Z,101909.44
2023-02-08T00:40:38.158Z,101901.19
2023-02-08T00:43:05.237Z,101903.34
2023-02-08T00:45:33.431Z,101899.56
2023-02-08T00:48:03.156Z,101899.78
2023-02-08T00:50:30.039Z,101903.91
2023-02-08T00:52:58.981Z,101898.09
2023-02-08T00:55:25.808Z,101904.72
2023-02-08T00:57:52.629Z,101910.31
2023-02-08T01:00:19.619Z,101908.16
2023-02-08T01:02:46.318Z,101910.19
2023-02-08T01:05:13.108Z,101913.72
2023-02-08T01:07:40.116Z,101919.09
2023-02-08T01:10:09.555Z,101907.88
2023-02-08T01:12:36.406Z,101908.84
2023-02-08T01:15:03.393Z,101908.59
2023-02-08T01:17:30.211Z,101912.28
2023-02-08T01:19:57.075Z,101912.28
2023-02-08T01:22:23.796Z,101911.72
2023-02-08T01:24:53.666Z,101910.19
2023-02-08T01:27:23.343Z,101907.94
2023-02-08T01:29:53.732Z,101916.94
2023-02-08T01:32:22.811Z,101900.03
2023-02-08T01:34:49.529Z,101900.69
2023-02-08T01:37:16.192Z,101902.03
2023-02-08T01:39:42.931Z,101894.56
2023-02-08T01:42:16.940Z,101894.06
2023-02-08T01:44:48.607Z,101894.06
2023-02-08T01:47:15.995Z,101887.53
2023-02-08T01:49:42.890Z,101885.84
2023-02-08T01:52:17.209Z,101889.56
2023-02-08T01:54:45.728Z,101879.47
2023-02-08T02:00:01.548Z,101884.84
2023-02-08T02:02:29.847Z,101878.63
2023-02-08T02:04:57.305Z,101882.28
2023-02-08T02:07:28.868Z,101887.53
2023-02-08T02:10:06.263Z,101884.00
2023-02-08T02:12:35.764Z,101883.66
2023-02-08T02:15:04.131Z,101886.00
2023-02-08T02:17:31.120Z,101878.94
2023-02-08T02:20:08.460Z,101881.41
2023-02-08T02:22:44.611Z,101876.41
2023-02-08T02:25:45.605Z,101877.13
2023-02-08T02:28:39.883Z,101880.91
2023-02-08T02:31:15.552Z,101877.38
2023-02-08T02:33:45.623Z,101880.34
2023-02-08T02:36:24.618Z,101884.00
2023-02-08T02:39:03.039Z,101881.44
2023-02-08T02:41:45.468Z,101876.38
2023-02-08T02:44:34.741Z,101874.56
2023-02-08T02:47:24.482Z,101873.19
2023-02-08T02:50:01.866Z,101876.72
2023-02-08T02:52:45.460Z,101882.59
2023-02-08T02:55:16.984Z,101882.78
2023-02-08T02:57:46.018Z,101881.25
2023-02-08T03:00:20.043Z,101872.16
2023-02-08T03:02:47.475Z,101879.94
2023-02-08T03:05:14.765Z,101875.59
2023-02-08T03:07:46.526Z,101877.53
2023-02-08T03:10:22.096Z,101878.53
2023-02-08T03:13:16.492Z,101876.72
2023-02-08T03:15:44.540Z,101875.88
2023-02-08T03:18:36.537Z,101874.19
2023-02-08T03:21:25.197Z,101868.25
2023-02-08T03:24:06.331Z,101867.69
2023-02-08T03:26:44.566Z,101870.97
2023-02-08T03:29:27.821Z,101873.19
2023-02-08T03:32:04.428Z,101884.69
2023-02-08T03:34:45.579Z,101877.53
2023-02-08T03:37:28.453Z,101883.41
2023-02-08T03:40:02.968Z,101886.09
2023-02-08T03:42:33.492Z,101888.66
2023-02-08T03:45:11.048Z,101882.38
2023-02-08T03:47:41.239Z,101889.84
2023-02-08T03:50:11.719Z,101893.56
2023-02-08T03:55:23.601Z,101896.59
2023-02-08T03:57:56.482Z,101888.50
2023-02-08T04:00:23.935Z,101884.03
2023-02-08T04:03:04.856Z,101881.25
2023-02-08T04:05:31.903Z,101876.91
2023-02-08T04:07:58.689Z,101876.28
2023-02-08T04:10:25.448Z,101886.69
2023-02-08T04:12:52.203Z,101874.69
2023-02-08T04:15:19.090Z,101881.63
2023-02-08T04:17:45.856Z,101882.66
2023-02-08T04:20:13.173Z,101882.03
2023-02-08T04:22:40.231Z,101879.53
2023-02-08T04:25:08.393Z,101870.19
2023-02-08T04:27:35.253Z,101873.59
2023-02-08T04:30:02.563Z,101876.22
2023-02-08T04:32:35.462Z,101870.78
2023-02-08T04:35:02.158Z,101871.47
2023-02-08T04:37:28.842Z,101871.88
2023-02-08T04:39:55.568Z,101871.56
2023-02-08T04:42:23.891Z,101871.59
2023-02-08T04:44:50.716Z,101875.09
2023-02-08T04:47:20.654Z,101865.88
2023-02-08T04:49:50.798Z,101868.41
2023-02-08T04:52:17.537Z,101865.19
2023-02-08T04:54:47.599Z,101863.16
2023-02-08T04:57:15.276Z,101870.84
2023-02-08T04:59:42.215Z,101870.78
2023-02-08T05:02:12.423Z,101875.81
2023-02-08T05:04:39.165Z,101875.44
2023-02-08T05:07:06.001Z,101873.56
2023-02-08T05:09:35.587Z,101873.88
2023-02-08T05:12:05.909Z,101866.88
2023-02-08T05:14:34.995Z,101870.38
2023-02-08T05:22:09.898Z,101864.97
2023-02-08T05:24:36.750Z,101871.84
2023-02-08T05:27:03.882Z,101870.38
2023-02-08T05:29:33.678Z,101874.31
2023-02-08T05:32:02.770Z,101878.56
2023-02-08T05:34:29.483Z,101872.19
2023-02-08T05:36:59.103Z,101880.59
2023-02-08T05:39:29.096Z,101884.22
2023-02-08T05:41:55.879Z,101879.47
2023-02-08T05:44:22.729Z,101873.81
2023-02-08T05:46:50.076Z,101885.22
2023-02-08T05:49:16.915Z,101879.78
2023-02-08T05:54:14.067Z,101877.91
2023-02-08T05:56:40.956Z,101879.72
2023-02-08T05:59:07.694Z,101882.59
2023-02-08T06:01:35.210Z,101885.69
2023-02-08T06:04:05.395Z,101882.78
2023-02-08T06:06:35.805Z,101881.91
2023-02-08T06:09:02.735Z,101885.47
2023-02-08T06:11:29.693Z,101882.88
2023-02-08T06:13:56.905Z,101886.31
2023-02-08T06:16:23.903Z,101888.97
2023-02-08T06:18:50.805Z,101892.56
2023-02-08T06:21:17.778Z,101891.75
2023-02-08T06:23:48.724Z,101895.53
2023-02-08T06:26:15.520Z,101886.75
2023-02-08T06:28:42.442Z,101893.94
2023-02-08T06:31:09.115Z,101896.81
2023-02-08T06:33:35.808Z,101898.53
2023-02-08T06:36:02.609Z,101899.22
2023-02-08T06:38:29.488Z,101905.56
2023-02-08T06:40:56.262Z,101905.75
2023-02-08T06:43:23.606Z,101917.38
2023-02-08T06:45:50.321Z,101912.78
2023-02-08T06:48:17.104Z,101925.94
2023-02-08T06:53:10.555Z,101917.69
2023-02-08T06:55:37.284Z,101918.59
2023-02-08T06:58:04.082Z,101919.56
2023-02-08T07:00:31.023Z,101923.94
2023-02-08T07:02:59.080Z,101927.19
2023-02-08T07:05:25.734Z,101914.84
2023-02-08T07:07:53.792Z,101920.91
2023-02-08T07:10:21.422Z,101927.34
2023-02-08T07:12:48.132Z,101921.94
2023-02-08T07:15:14.852Z,101917.69
2023-02-08T07:17:41.589Z,101920.28
2023-02-08T07:20:11.889Z,101915.75
2023-02-08T07:22:39.770Z,101914.03
2023-02-08T07:25:07.935Z,101911.69
2023-02-08T07:27:37.999Z,101919.88
2023-02-08T07:30:05.179Z,101922.34
2023-02-08T07:32:34.586Z,101917.13
2023-02-08T07:35:01.859Z,101904.41
2023-02-08T07:37:28.591Z,101906.53
2023-02-08T07:39:56.052Z,101904.06
2023-02-08T07:42:23.152Z,101906.44
2023-02-08T07:44:50.846Z,101896.59
2023-02-08T07:47:17.667Z,101894.00
2023-02-08T07:49:45.719Z,101894.81
2023-02-08T07:52:12.443Z,101896.38
2023-02-08T07:54:39.103Z,101897.72
2023-02-08T07:57:05.736Z,101894.38
2023-02-08T07:59:32.486Z,101891.47
2023-02-08T08:01:59.250Z,101890.13
2023-02-08T08:04:25.939Z,101889.97
2023-02-08T08:06:53.908Z,101895.78
2023-02-08T08:09:20.716Z,101898.88
2023-02-08T08:11:47.488Z,101899.66
2023-02-08T08:14:14.396Z,101900.50
2023-02-08T08:16:42.640Z,101897.88
2023-02-08T08:19:09.440Z,101896.16
2023-02-08T08:21:36.209Z,101903.75
2023-02-08T08:24:02.882Z,101901.19
2023-02-08T08:26:30.158Z,101893.28
2023-02-08T08:28:56.869Z,101885.72
2023-02-08T08:31:23.766Z,101879.13
2023-02-08T08:33:50.675Z,101878.94
2023-02-08T08:36:17.401Z,101884.25
2023-02-08T08:41:15.005Z,101875.88
2023-02-08T08:43:41.941Z,101871.28
2023-02-08T08:46:10.153Z,101875.91
2023-02-08T08:48:38.489Z,101874.97
2023-02-08T08:51:05.884Z,101873.53
2023-02-08T08:53:33.089Z,101875.22
2023-02-08T08:55:59.854Z,101875.38
2023-02-08T08:58:26.528Z,101868.88
2023-02-08T09:00:54.216Z,101869.09
2023-02-08T09:03:20.948Z,101867.59
2023-02-08T09:05:47.684Z,101867.16
2023-02-08T09:08:14.583Z,101868.44
2023-02-08T09:10:41.797Z,101870.09
2023-02-08T09:13:09.286Z,101867.75
2023-02-08T09:15:40.430Z,101869.38
2023-02-08T09:18:07.536Z,101870.59
2023-02-08T09:20:34.207Z,101873.44
2023-02-08T09:23:00.927Z,101860.28
2023-02-08T09:25:28.013Z,101867.25
2023-02-08T09:27:54.761Z,101869.16
2023-02-08T09:30:21.687Z,101863.31
2023-02-08T09:32:48.366Z,101867.91
2023-02-08T09:35:15.598Z,101863.44
2023-02-08T09:37:42.496Z,101864.25
2023-02-08T09:40:23.004Z,101861.72
2023-02-08T09:43:19.568Z,101869.47
2023-02-08T09:45:59.978Z,101863.63
2023-02-08T09:48:39.291Z,101861.50
2023-02-08T09:51:22.113Z,101868.41
2023-02-08T09:53:55.191Z,101858.34
2023-02-08T09:56:29.416Z,101857.38
2023-02-08T09:58:57.535Z,101858.63
2023-02-08T10:01:31.031Z,101858.00
2023-02-08T10:04:22.530Z,101856.13
2023-02-08T10:06:50.224Z,101857.16
2023-02-08T10:09:21.056Z,101853.59
2023-02-08T10:12:09.356Z,101849.97
2023-02-08T10:14:45.763Z,101854.25
2023-02-08T10:17:32.424Z,101864.13
2023-02-08T10:20:23.775Z,101864.66
2023-02-08T10:22:59.786Z,101854.56
2023-02-08T10:25:39.417Z,101846.84
2023-02-08T10:28:41.136Z,101845.78
2023-02-08T10:31:45.738Z,101840.09
2023-02-08T10:34:30.691Z,101842.97
2023-02-08T10:36:57.446Z,101844.78
2023-02-08T10:39:35.310Z,101843.72
2023-02-08T10:42:03.304Z,101841.28
2023-02-08T10:44:47.530Z,101825.84
2023-02-08T10:47:36.411Z,101832.63
2023-02-08T10:50:12.610Z,101822.03
2023-02-08T10:52:39.599Z,101818.59
2023-02-08T10:55:17.833Z,101825.50
2023-02-08T10:57:46.219Z,101810.50
2023-02-08T11:00:27.176Z,101804.59
2023-02-08T11:02:56.593Z,101803.25
2023-02-08T11:05:26.223Z,101800.06
2023-02-08T11:08:23.701Z,101800.06
2023-02-08T11:11:03.951Z,101792.84
2023-02-08T11:13:38.576Z,101785.38
2023-02-08T11:16:08.041Z,101792.00
2023-02-08T11:18:45.774Z,101783.22
2023-02-08T11:21:26.246Z,101787.41
2023-02-08T11:23:54.739Z,101777.03
2023-02-08T11:26:26.905Z,101773.84
2023-02-08T11:29:10.033Z,101777.41
2023-02-08T11:31:37.083Z,101775.28
2023-02-08T11:34:06.315Z,101765.53
2023-02-08T11:36:35.583Z,101766.47
2023-02-08T11:39:15.557Z,101756.88
2023-02-08T11:41:44.779Z,101753.97
2023-02-08T11:44:20.960Z,101752.41
2023-02-08T11:46:49.828Z,101744.16
2023-02-08T11:49:23.957Z,101738.03
2023-02-08T11:51:52.794Z,101723.63
2023-02-08T11:54:39.460Z,101727.59
2023-02-08T11:57:21.682Z,101723.66
2023-02-08T11:59:50.160Z,101722.22
2023-02-08T12:02:30.611Z,101712.34
2023-02-08T12:04:59.497Z,101705.41
2023-02-08T12:07:38.079Z,101708.38
2023-02-08T12:10:07.742Z,101704.88
2023-02-08T12:12:44.821Z,101697.31
2023-02-08T12:15:26.523Z,101700.34
2023-02-08T12:17:59.248Z,101696.81
2023-02-08T12:20:37.953Z,101689.47
2023-02-08T12:23:26.214Z,101690.41
2023-02-08T12:26:17.689Z,101687.97
2023-02-08T12:28:46.278Z,101682.38
2023-02-08T12:31:42.961Z,101670.19
2023-02-08T12:34:20.540Z,101665.56
2023-02-08T12:37:45.764Z,101666.78
2023-02-08T12:40:40.402Z,101651.59
2023-02-08T12:43:25.371Z,101648.81
2023-02-08T12:46:34.770Z,101645.69
2023-02-08T12:49:37.000Z,101636.56
2023-02-08T12:52:41.630Z,101644.78
2023-02-08T12:55:29.942Z,101630.97
2023-02-08T12:58:00.562Z,101628.44
2023-02-08T13:00:32.502Z,101624.66
2023-02-08T13:03:21.457Z,101611.56
2023-02-08T13:06:01.659Z,101612.88
2023-02-08T13:08:41.002Z,101620.66
2023-02-08T13:11:21.346Z,101622.75
2023-02-08T13:14:34.458Z,101618.97
2023-02-08T13:17:17.252Z,101615.84
2023-02-08T13:19:59.689Z,101607.66
2023-02-08T13:22:31.562Z,101616.47
2023-02-08T13:25:07.102Z,101613.81
2023-02-08T13:27:34.731Z,101596.91
2023-02-08T13:30:21.791Z,101585.38
2023-02-08T13:32:50.896Z,101580.31
2023-02-08T13:35:24.162Z,101582.94
2023-02-08T13:37:59.900Z,101578.81
2023-02-08T13:40:35.274Z,101573.09
2023-02-08T13:43:34.962Z,101571.81
2023-02-08T13:46:04.534Z,101567.94
2023-02-08T13:51:33.995Z,101567.69
2023-02-08T13:54:00.891Z,101575.28
2023-02-08T13:59:42.113Z,101553.97
2023-02-08T14:02:22.484Z,101545.84
2023-02-08T14:04:52.859Z,101548.16
2023-02-08T14:10:27.037Z,101545.63
2023-02-08T14:13:03.191Z,101540.81
2023-02-08T14:15:37.653Z,101541.41
2023-02-08T14:18:16.619Z,101525.94
2023-02-08T14:20:44.909Z,101526.16
2023-02-08T14:23:24.693Z,101518.66
2023-02-08T14:25:53.430Z,101517.28
2023-02-08T14:28:28.006Z,101508.94
2023-02-08T14:31:00.937Z,101505.84
2023-02-08T14:33:31.213Z,101496.84
2023-02-08T14:36:01.329Z,101503.31
2023-02-08T14:38:45.938Z,101513.72
2023-02-08T14:41:45.842Z,101491.88
2023-02-08T14:47:27.793Z,101503.19
2023-02-08T14:50:24.639Z,101499.47
2023-02-08T14:53:07.893Z,101484.13
2023-02-08T14:55:46.503Z,101486.94
2023-02-08T14:58:30.168Z,101473.25
2023-02-08T15:01:00.967Z,101476.94
2023-02-08T15:03:31.866Z,101475.56
2023-02-08T15:06:40.112Z,101484.59
2023-02-08T15:09:22.062Z,101479.59
2023-02-08T15:12:00.276Z,101479.44
2023-02-08T15:14:28.934Z,101481.25
2023-02-08T15:16:57.094Z,101473.03
2023-02-08T15:19:32.135Z,101483.72
2023-02-08T15:22:18.193Z,101487.00
2023-02-08T15:24:45.951Z,101485.72
2023-02-08T15:27:24.997Z,101480.66
2023-02-08T15:29:52.411Z,101482.94
2023-02-08T15:32:22.835Z,101477.38
2023-02-08T15:34:59.562Z,101475.94
2023-02-08T15:37:30.665Z,101479.34
2023-02-08T15:39:59.109Z,101471.25
2023-02-08T15:42:32.326Z,101473.75
2023-02-08T15:45:00.838Z,101464.41
2023-02-08T15:47:33.596Z,101471.47
2023-02-08T15:50:01.321Z,101462.84
2023-02-08T15:52:31.932Z,101466.47
2023-02-08T15:54:58.978Z,101472.22
2023-02-08T15:57:45.855Z,101469.88
2023-02-08T16:00:23.886Z,101468.06
2023-02-08T16:02:56.492Z,101466.72
2023-02-08T16:05:26.960Z,101461.63
2023-02-08T16:07:54.493Z,101460.41
2023-02-08T16:10:42.955Z,101459.19
2023-02-08T16:13:19.588Z,101465.16
2023-02-08T16:15:51.977Z,101473.13
2023-02-08T16:18:42.060Z,101477.84
2023-02-08T16:21:27.037Z,101480.56
2023-02-08T16:23:58.210Z,101472.03
2023-02-08T16:26:35.834Z,101488.66
2023-02-08T16:29:19.256Z,101472.13
2023-02-08T16:31:55.986Z,101479.44
2023-02-08T16:34:29.977Z,101475.38
2023-02-08T16:37:07.246Z,101480.97
2023-02-08T16:39:47.136Z,101483.09
2023-02-08T16:42:25.335Z,101477.34
2023-02-08T16:45:01.020Z,101472.25
2023-02-08T16:47:38.640Z,101474.38
2023-02-08T16:50:06.547Z,101478.78
2023-02-08T16:52:34.182Z,101478.41
2023-02-08T16:55:02.124Z,101480.31
2023-02-08T17:00:35.165Z,101484.88
2023-02-08T17:03:02.183Z,101484.44
2023-02-08T17:05:32.187Z,101481.16
2023-02-08T17:07:59.844Z,101471.28
2023-02-08T17:10:30.130Z,101476.16
2023-02-08T17:13:17.065Z,101477.66
2023-02-08T17:15:46.431Z,101485.94
2023-02-08T17:18:17.111Z,101479.16
2023-02-08T17:23:11.737Z,101477.97
2023-02-08T17:25:38.924Z,101486.75
2023-02-08T17:28:15.094Z,101487.16
2023-02-08T17:33:18.627Z,101489.28
2023-02-08T17:35:47.185Z,101487.97
2023-02-08T17:38:15.858Z,101494.50
2023-02-08T17:43:11.858Z,101496.03
2023-02-08T17:45:41.993Z,101503.50
2023-02-08T17:48:16.055Z,101499.81
2023-02-08T17:50:51.001Z,101503.38
2023-02-08T17:53:18.693Z,101497.81
2023-02-08T17:55:46.442Z,101503.31
2023-02-08T17:58:13.770Z,101500.78
2023-02-08T18:00:40.897Z,101499.91
2023-02-08T18:03:07.786Z,101500.72
2023-02-08T18:05:34.592Z,101504.94
2023-02-08T18:08:01.879Z,101505.69
2023-02-08T18:10:28.569Z,101502.84
2023-02-08T18:12:55.440Z,101502.75
2023-02-08T18:15:22.792Z,101507.31
2023-02-08T18:17:56.448Z,101501.69
2023-02-08T18:20:23.572Z,101503.19
2023-02-08T18:22:50.530Z,101503.91
2023-02-08T18:25:20.971Z,101500.50
2023-02-08T18:27:50.952Z,101507.31
2023-02-08T18:30:18.644Z,101502.63
2023-02-08T18:32:48.335Z,101509.97
2023-02-08T18:35:15.068Z,101509.72
2023-02-08T18:37:41.930Z,101517.75
2023-02-08T18:40:10.258Z,101520.78
2023-02-08T18:42:37.399Z,101523.16
2023-02-08T18:45:08.075Z,101527.25
2023-02-08T18:47:40.441Z,101528.41
2023-02-08T18:50:07.877Z,101539.66
2023-02-08T18:52:35.186Z,101542.50
2023-02-08T18:55:02.528Z,101538.03
2023-02-08T18:57:29.285Z,101538.41
2023-02-08T18:59:56.315Z,101541.72
2023-02-08T19:02:23.725Z,101540.88
2023-02-08T19:04:53.370Z,101540.50
2023-02-08T19:07:20.342Z,101541.81
2023-02-08T19:09:47.630Z,101536.22
2023-02-08T19:12:15.866Z,101528.00
2023-02-08T19:17:15.309Z,101528.00
2023-02-08T19:19:42.506Z,101526.31
2023-02-08T19:22:09.297Z,101534.78
2023-02-08T19:24:42.049Z,101537.94
2023-02-08T19:27:09.003Z,101537.22
2023-02-08T19:29:36.026Z,101533.81
2023-02-08T19:32:02.844Z,101539.84
2023-02-08T19:34:37.655Z,101532.50
2023-02-08T19:37:04.668Z,101529.25
2023-02-08T19:39:31.610Z,101521.59
2023-02-08T19:42:01.240Z,101531.13
2023-02-08T19:44:30.494Z,101531.81
2023-02-08T19:46:58.005Z,101536.41
2023-02-08T19:49:28.588Z,101532.75
2023-02-08T19:51:56.379Z,101538.13
2023-02-08T19:54:23.332Z,101543.41
2023-02-08T19:56:52.468Z,101534.91
2023-02-08T19:59:26.189Z,101545.44
2023-02-08T20:01:54.679Z,101536.16
2023-02-08T20:04:22.402Z,101541.34
2023-02-08T20:06:54.453Z,101535.56
2023-02-08T20:09:22.571Z,101529.69
2023-02-08T20:11:57.713Z,101528.16
2023-02-08T20:14:27.021Z,101530.91
2023-02-08T20:16:54.020Z,101532.69
2023-02-08T20:19:21.663Z,101533.63
2023-02-08T20:21:52.183Z,101540.72
2023-02-08T20:24:19.057Z,101537.91
2023-02-08T20:26:48.283Z,101536.88
2023-02-08T20:29:15.769Z,101538.91
2023-02-08T20:31:45.129Z,101532.63
2023-02-08T20:34:16.595Z,101531.41
2023-02-08T20:37:00.931Z,101536.97
2023-02-08T20:39:35.010Z,101536.53
2023-02-08T20:42:06.694Z,101535.94
2023-02-08T20:44:33.669Z,101540.38
2023-02-08T20:47:03.707Z,101540.47
2023-02-08T20:49:33.915Z,101543.69
2023-02-08T20:52:02.032Z,101528.28
2023-02-08T20:54:31.995Z,101541.31
2023-02-08T20:57:03.819Z,101547.81
2023-02-08T21:02:24.448Z,101551.34
2023-02-08T21:04:55.240Z,101559.63
2023-02-08T21:07:22.702Z,101543.72
2023-02-08T21:09:49.641Z,101552.03
2023-02-08T21:12:18.973Z,101546.06
2023-02-08T21:14:45.843Z,101543.34
2023-02-08T21:17:12.799Z,101538.38
2023-02-08T21:19:39.801Z,101536.13
2023-02-08T21:22:07.023Z,101524.25
2023-02-08T21:24:34.216Z,101523.13
2023-02-08T21:27:01.556Z,101510.28
2023-02-08T21:29:32.443Z,101511.38
2023-02-08T21:31:59.477Z,101515.44
2023-02-08T21:34:26.630Z,101513.94
2023-02-08T21:36:53.607Z,101516.44
2023-02-08T21:39:20.730Z,101512.63
2023-02-08T21:41:48.729Z,101508.22
2023-02-08T21:44:15.741Z,101504.28
2023-02-08T21:46:43.016Z,101499.28
2023-02-08T21:49:29.689Z,101502.75
2023-02-08T21:52:24.441Z,101506.97
2023-02-08T21:54:53.771Z,101495.84
2023-02-08T21:57:37.991Z,101499.50
2023-02-08T22:00:08.506Z,101496.25
2023-02-08T22:02:35.319Z,101491.44
2023-02-08T22:05:22.462Z,101489.59
2023-02-08T22:07:55.158Z,101485.75
2023-02-08T22:10:24.899Z,101483.88
2023-02-08T22:12:56.288Z,101471.47
2023-02-08T22:15:25.501Z,101480.78
2023-02-08T22:17:54.117Z,101481.41
2023-02-08T22:20:21.876Z,101479.31
2023-02-08T22:22:53.091Z,101477.72
2023-02-08T22:25:21.547Z,101475.84
2023-02-08T22:27:48.599Z,101479.56
2023-02-08T22:30:17.718Z,101480.88
2023-02-08T22:32:46.167Z,101475.00
2023-02-08T22:35:14.714Z,101484.75
2023-02-08T22:37:41.688Z,101484.75
2023-02-08T22:40:12.861Z,101478.47
2023-02-08T22:42:40.869Z,101482.50
2023-02-08T22:45:08.871Z,101476.41
2023-02-08T22:47:39.253Z,101472.44
2023-02-08T22:50:09.852Z,101481.50
2023-02-08T22:52:36.628Z,101484.84
2023-02-08T22:55:04.356Z,101485.91
2023-02-08T22:57:32.577Z,101468.38
2023-02-08T23:00:02.478Z,101476.38
2023-02-08T23:02:29.241Z,101477.22
2023-02-08T23:04:55.980Z,101473.50
2023-02-08T23:07:23.266Z,101474.22
2023-02-08T23:10:00.526Z,101477.00
2023-02-08T23:12:27.272Z,101467.94
2023-02-08T23:14:54.134Z,101461.75
2023-02-08T23:17:20.860Z,101475.66
2023-02-08T23:19:48.013Z,101465.06
2023-02-08T23:22:14.763Z,101458.06
2023-02-08T23:24:41.487Z,101465.75
2023-02-08T23:27:08.284Z,101458.41
2023-02-08T23:29:35.015Z,101457.47
2023-02-08T23:32:05.334Z,101449.81
2023-02-08T23:34:34.366Z,101453.50
2023-02-08T23:37:01.222Z,101451.34
2023-02-08T23:39:34.167Z,101452.88
2023-02-08T23:42:01.065Z,101445.09
2023-02-08T23:44:27.956Z,101451.94
2023-02-08T23:46:55.115Z,101447.94
2023-02-08T23:49:21.963Z,101445.84
2023-02-08T23:51:48.729Z,101450.38
2023-02-08T23:54:15.611Z,101452.63
2023-02-08T23:56:42.685Z,101448.13
2023-02-08T23:59:11.344Z,101456.75
